createdAt,value
2018-06-04T00:00:32.542Z,17.90
2018-06-04T00:02:37.345Z,22.10
2018-06-04T00:04:42.024Z,18.53
2018-06-04T00:06:46.694Z,19.40
2018-06-04T00:08:51.305Z,21.73
2018-06-04T00:10:55.991Z,17.90
2018-06-04T00:13:00.631Z,20.13
2018-06-04T00:15:05.369Z,19.13
2018-06-04T00:17:10.222Z,19.70
2018-06-04T00:19:14.909Z,19.10
2018-06-04T00:21:19.205Z,19.60
2018-06-04T00:23:23.977Z,24.47
2018-06-04T00:25:28.664Z,17.60
2018-06-04T00:27:33.298Z,18.00
2018-06-04T00:29:37.964Z,18.33
2018-06-04T00:31:42.701Z,22.90
2018-06-04T00:33:47.325Z,18.63
2018-06-04T00:35:52.046Z,21.83
2018-06-04T00:37:56.811Z,23.00
2018-06-04T00:40:01.165Z,19.70
2018-06-04T00:42:05.899Z,22.50
2018-06-04T00:44:10.574Z,22.13
2018-06-04T00:46:15.336Z,14.90
2018-06-04T00:48:20.091Z,27.70
2018-06-04T00:50:24.775Z,21.00
2018-06-04T00:52:29.391Z,21.90
2018-06-04T00:54:34.017Z,19.93
2018-06-04T00:56:39.042Z,26.87
2018-06-04T00:58:43.838Z,23.63
2018-06-04T01:00:48.841Z,19.10
2018-06-04T01:02:53.574Z,22.30
2018-06-04T01:04:58.239Z,18.93
2018-06-04T01:07:03.039Z,26.00
2018-06-04T01:09:09.017Z,22.20
2018-06-04T01:11:13.843Z,18.47
2018-06-04T01:13:18.573Z,19.37
2018-06-04T01:15:23.327Z,21.07
2018-06-04T01:17:28.056Z,22.10
2018-06-04T01:19:32.851Z,20.60
2018-06-04T01:21:37.567Z,21.23
2018-06-04T01:23:42.251Z,24.43
2018-06-04T01:25:46.922Z,23.53
2018-06-04T01:27:51.554Z,20.97
2018-06-04T01:29:56.165Z,24.90
2018-06-04T01:32:00.895Z,26.70
2018-06-04T01:34:05.610Z,22.70
2018-06-04T01:36:10.414Z,28.60
2018-06-04T01:38:15.066Z,22.80
2018-06-04T01:40:19.743Z,22.87
2018-06-04T01:42:24.432Z,22.47
2018-06-04T01:44:29.245Z,28.10
2018-06-04T01:46:33.942Z,26.73
2018-06-04T01:48:38.657Z,32.77
2018-06-04T01:50:43.361Z,29.57
2018-06-04T01:52:48.060Z,23.50
2018-06-04T01:54:52.707Z,26.00
2018-06-04T01:56:57.491Z,33.50
2018-06-04T01:59:02.215Z,24.73
2018-06-04T02:01:06.888Z,29.10
2018-06-04T02:03:11.650Z,23.93
2018-06-04T02:05:16.416Z,30.10
2018-06-04T02:07:21.105Z,23.37
2018-06-04T02:09:25.733Z,24.40
2018-06-04T02:11:30.371Z,31.93
2018-06-04T02:13:34.975Z,23.20
2018-06-04T02:15:39.569Z,30.33
2018-06-04T02:17:44.186Z,31.93
2018-06-04T02:19:48.911Z,26.23
2018-06-04T02:21:53.565Z,27.33
2018-06-04T02:23:58.230Z,27.10
2018-06-04T02:26:02.886Z,29.40
2018-06-04T02:28:07.570Z,27.77
2018-06-04T02:30:12.333Z,26.30
2018-06-04T02:32:17.053Z,22.37
2018-06-04T02:34:21.709Z,25.00
2018-06-04T02:36:26.411Z,25.93
2018-06-04T02:38:31.102Z,26.00
2018-06-04T02:40:35.732Z,23.20
2018-06-04T02:42:40.420Z,29.83
2018-06-04T02:44:45.112Z,30.47
2018-06-04T02:46:49.720Z,22.27
2018-06-04T02:48:54.368Z,24.27
2018-06-04T02:51:00.014Z,25.00
2018-06-04T02:53:04.670Z,31.43
2018-06-04T02:55:09.336Z,23.37
2018-06-04T02:57:14.012Z,26.60
2018-06-04T02:59:18.736Z,27.23
2018-06-04T03:01:23.582Z,24.83
2018-06-04T03:03:28.280Z,25.47
2018-06-04T03:05:32.979Z,24.77
2018-06-04T03:07:37.607Z,32.17
2018-06-04T03:09:42.283Z,27.90
2018-06-04T03:11:46.961Z,20.50
2018-06-04T03:13:51.633Z,25.80
2018-06-04T03:15:56.355Z,27.03
2018-06-04T03:18:01.024Z,26.07
2018-06-04T03:20:05.792Z,27.30
2018-06-04T03:22:10.640Z,24.53
2018-06-04T03:24:15.271Z,27.47
2018-06-04T03:26:20.028Z,29.13
2018-06-04T03:28:24.681Z,21.20
2018-06-04T03:30:29.513Z,29.27
2018-06-04T03:32:34.206Z,23.27
2018-06-04T03:34:38.977Z,29.43
2018-06-04T03:36:43.647Z,26.47
2018-06-04T03:38:48.313Z,30.03
2018-06-04T03:40:52.955Z,36.93
2018-06-04T03:42:57.616Z,25.50
2018-06-04T03:45:02.301Z,29.30
2018-06-04T03:47:07.363Z,29.50
2018-06-04T03:49:11.694Z,34.97
2018-06-04T03:51:16.535Z,29.07
2018-06-04T03:53:21.476Z,37.87
2018-06-04T03:55:26.230Z,34.90
2018-06-04T03:57:30.896Z,33.33
2018-06-04T03:59:35.603Z,33.50
2018-06-04T04:01:40.241Z,31.13
2018-06-04T04:03:44.900Z,33.97
2018-06-04T04:05:49.520Z,33.30
2018-06-04T04:07:54.301Z,33.33
2018-06-04T04:09:59.043Z,32.63
2018-06-04T04:12:03.971Z,30.27
2018-06-04T04:14:08.785Z,31.17
2018-06-04T04:16:13.428Z,35.23
2018-06-04T04:18:18.208Z,33.37
2018-06-04T04:20:23.206Z,29.30
2018-06-04T04:22:27.888Z,34.53
2018-06-04T04:24:32.506Z,33.50
2018-06-04T04:26:37.136Z,31.10
2018-06-04T04:28:41.918Z,39.13
2018-06-04T04:30:46.576Z,29.57
2018-06-04T04:32:51.311Z,37.40
2018-06-04T04:34:56.172Z,40.13
2018-06-04T04:37:01.128Z,35.20
2018-06-04T04:39:09.519Z,36.70
2018-06-04T04:41:14.322Z,41.67
2018-06-04T04:43:19.045Z,32.87
2018-06-04T04:45:23.871Z,39.27
2018-06-04T04:47:28.589Z,35.40
2018-06-04T04:49:33.258Z,33.97
2018-06-04T04:51:38.003Z,34.17
2018-06-04T04:53:42.903Z,39.70
2018-06-04T04:55:47.775Z,27.90
2018-06-04T04:57:52.522Z,28.90
2018-06-04T04:59:57.282Z,39.60
2018-06-04T05:02:02.007Z,33.03
2018-06-04T05:04:06.885Z,29.07
2018-06-04T05:06:11.679Z,33.37
2018-06-04T05:08:16.366Z,30.77
2018-06-04T05:10:21.095Z,32.57
2018-06-04T05:12:25.972Z,32.10
2018-06-04T05:14:30.743Z,35.20
2018-06-04T05:16:35.538Z,39.53
2018-06-04T05:18:40.324Z,35.57
2018-06-04T05:20:45.026Z,30.60
2018-06-04T05:22:49.696Z,35.50
2018-06-04T05:24:54.499Z,34.27
2018-06-04T05:26:59.319Z,41.67
2018-06-04T05:29:04.122Z,37.93
2018-06-04T05:31:09.063Z,32.13
2018-06-04T05:33:13.863Z,37.83
2018-06-04T05:35:18.579Z,36.67
2018-06-04T05:37:23.556Z,29.57
2018-06-04T05:39:28.344Z,32.20
2018-06-04T05:41:33.207Z,33.97
2018-06-04T05:43:38.406Z,38.37
2018-06-04T05:45:43.150Z,32.83
2018-06-04T05:47:47.976Z,38.97
2018-06-04T05:49:52.858Z,34.23
2018-06-04T05:51:57.574Z,32.20
2018-06-04T05:54:02.287Z,32.00
2018-06-04T05:56:07.175Z,30.27
2018-06-04T05:58:11.894Z,31.67
2018-06-04T06:00:16.696Z,34.53
2018-06-04T06:02:21.485Z,30.30
2018-06-04T06:04:26.249Z,41.00
2018-06-04T06:06:30.998Z,35.07
2018-06-04T06:08:35.705Z,33.97
2018-06-04T06:10:40.467Z,40.03
2018-06-04T06:12:45.274Z,32.73
2018-06-04T06:14:50.062Z,36.30
2018-06-04T06:16:54.849Z,35.13
2018-06-04T06:18:59.698Z,37.90
2018-06-04T06:21:04.529Z,31.57
2018-06-04T06:23:09.317Z,33.93
2018-06-04T06:25:14.065Z,36.43
2018-06-04T06:27:18.771Z,33.70
2018-06-04T06:29:23.658Z,37.23
2018-06-04T06:31:28.438Z,38.33
2018-06-04T06:33:33.233Z,30.60
2018-06-04T06:35:38.016Z,32.10
2018-06-04T06:37:42.855Z,31.73
2018-06-04T06:39:47.657Z,33.53
2018-06-04T06:41:52.373Z,38.63
2018-06-04T06:43:57.135Z,29.63
2018-06-04T06:46:01.971Z,38.97
2018-06-04T06:48:06.788Z,32.70
2018-06-04T06:50:11.580Z,29.83
2018-06-04T06:52:16.456Z,31.63
2018-06-04T06:54:21.124Z,34.77
2018-06-04T06:56:25.880Z,36.77
2018-06-04T06:58:30.936Z,35.60
2018-06-04T07:00:36.140Z,31.10
2018-06-04T07:02:40.858Z,38.50
2018-06-04T07:04:45.957Z,29.93
2018-06-04T07:06:50.702Z,34.30
2018-06-04T07:08:55.399Z,32.90
2018-06-04T07:11:00.163Z,39.97
2018-06-04T07:13:05.011Z,33.03
2018-06-04T07:15:10.153Z,32.70
2018-06-04T07:17:15.308Z,38.40
2018-06-04T07:19:20.645Z,38.33
2018-06-04T07:21:26.356Z,32.50
2018-06-04T07:23:31.496Z,35.37
2018-06-04T07:25:36.716Z,32.60
2018-06-04T07:27:42.114Z,35.93
2018-06-04T07:29:47.235Z,29.20
2018-06-04T07:31:52.548Z,28.20
2018-06-04T07:33:57.572Z,25.27
2018-06-04T07:36:12.169Z,26.20
2018-06-04T07:38:17.306Z,31.03
2018-06-04T07:40:22.687Z,23.53
2018-06-04T07:42:27.639Z,24.03
2018-06-04T07:44:33.244Z,25.77
2018-06-04T07:46:38.053Z,30.73
2018-06-04T07:48:43.158Z,24.67
2018-06-04T07:50:56.502Z,25.30
2018-06-04T07:53:01.223Z,24.67
2018-06-04T07:55:06.241Z,32.17
2018-06-04T07:57:11.399Z,27.73
2018-06-04T07:59:16.570Z,27.53
2018-06-04T08:01:21.913Z,30.27
2018-06-04T08:03:26.675Z,26.80
2018-06-04T08:05:31.570Z,26.47
2018-06-04T08:07:36.545Z,35.13
2018-06-04T08:09:41.264Z,29.67
2018-06-04T08:11:46.078Z,23.00
2018-06-04T08:13:50.880Z,25.67
2018-06-04T08:15:55.879Z,24.67
2018-06-04T08:18:00.997Z,24.33
2018-06-04T08:20:06.580Z,23.70
2018-06-04T08:22:11.545Z,23.27
2018-06-04T08:24:16.836Z,22.53
2018-06-04T08:26:21.751Z,24.80
2018-06-04T08:28:26.805Z,20.27
2018-06-04T08:30:32.007Z,22.10
2018-06-04T08:32:36.990Z,19.17
2018-06-04T08:34:41.887Z,22.93
2018-06-04T08:36:46.670Z,21.80
2018-06-04T08:38:51.620Z,16.90
2018-06-04T08:40:56.502Z,18.10
2018-06-04T08:43:01.475Z,17.10
2018-06-04T08:45:06.841Z,18.83
2018-06-04T08:47:11.709Z,20.90
2018-06-04T08:49:16.548Z,15.33
2018-06-04T08:51:21.426Z,14.53
2018-06-04T08:53:26.419Z,14.67
2018-06-04T08:55:31.297Z,17.03
2018-06-04T08:57:36.286Z,15.97
2018-06-04T08:59:41.251Z,19.57
2018-06-04T09:01:47.404Z,15.13
2018-06-04T09:03:52.190Z,13.90
2018-06-04T09:08:11.070Z,13.00
2018-06-04T09:10:15.794Z,14.93
2018-06-04T09:12:20.459Z,13.87
2018-06-04T09:14:25.197Z,13.47
2018-06-04T09:16:29.877Z,13.10
2018-06-04T09:18:34.496Z,14.63
2018-06-04T09:20:39.251Z,11.90
2018-06-04T09:22:44.057Z,12.67
2018-06-04T09:24:48.954Z,11.87
2018-06-04T09:26:54.143Z,14.13
2018-06-04T09:28:59.074Z,13.10
2018-06-04T09:31:04.293Z,12.93
2018-06-04T09:33:12.199Z,11.10
2018-06-04T09:35:17.137Z,11.37
2018-06-04T09:37:22.004Z,11.33
2018-06-04T09:39:27.313Z,10.80
2018-06-04T09:41:32.199Z,11.90
2018-06-04T09:43:37.452Z,10.27
2018-06-04T09:45:42.175Z,17.70
2018-06-04T09:47:47.086Z,13.83
2018-06-04T09:49:51.933Z,9.87
2018-06-04T09:51:56.788Z,11.20
2018-06-04T09:54:01.799Z,16.23
2018-06-04T09:56:06.722Z,10.70
2018-06-04T09:58:11.486Z,11.53
2018-06-04T10:00:21.371Z,13.40
2018-06-04T10:02:26.555Z,15.27
2018-06-04T10:04:31.659Z,13.53
2018-06-04T10:06:36.683Z,14.10
2018-06-04T10:08:42.159Z,13.67
2018-06-04T10:10:47.129Z,10.87
2018-06-04T10:12:51.929Z,10.07
2018-06-04T10:14:57.194Z,15.33
2018-06-04T10:17:01.990Z,11.40
2018-06-04T10:19:07.652Z,11.90
2018-06-04T10:21:12.471Z,12.20
2018-06-04T10:23:17.251Z,9.97
2018-06-04T10:25:22.042Z,17.93
2018-06-04T10:27:26.813Z,12.37
2018-06-04T10:29:31.704Z,10.53
2018-06-04T10:31:36.480Z,12.23
2018-06-04T10:33:41.195Z,11.40
2018-06-04T10:35:45.992Z,8.17
2018-06-04T10:37:50.628Z,10.43
2018-06-04T10:39:55.289Z,10.33
2018-06-04T10:41:59.902Z,8.13
2018-06-04T10:44:05.045Z,6.97
2018-06-04T10:46:09.862Z,6.13
2018-06-04T10:48:14.539Z,10.23
2018-06-04T10:50:19.323Z,12.90
2018-06-04T10:52:24.222Z,6.30
2018-06-04T10:54:29.051Z,8.83
2018-06-04T10:56:33.757Z,9.23
2018-06-04T10:58:38.478Z,10.10
2018-06-04T11:00:43.119Z,8.37
2018-06-04T11:02:47.914Z,11.67
2018-06-04T11:04:52.597Z,7.00
2018-06-04T11:06:57.386Z,7.50
2018-06-04T11:09:02.038Z,7.27
2018-06-04T11:11:06.778Z,12.97
2018-06-04T11:13:11.525Z,9.93
2018-06-04T11:15:16.532Z,10.57
2018-06-04T11:17:21.494Z,8.53
2018-06-04T11:19:26.508Z,8.47
2018-06-04T11:21:31.313Z,12.73
2018-06-04T11:23:36.117Z,12.53
2018-06-04T11:25:40.963Z,10.83
2018-06-04T11:27:45.675Z,9.53
2018-06-04T11:29:50.376Z,8.40
2018-06-04T11:31:55.068Z,8.87
2018-06-04T11:33:59.740Z,9.07
2018-06-04T11:36:04.813Z,11.50
2018-06-04T11:38:13.001Z,10.17
2018-06-04T11:40:18.565Z,10.57
2018-06-04T11:42:23.342Z,10.80
2018-06-04T11:44:28.035Z,12.43
2018-06-04T11:46:32.793Z,9.90
2018-06-04T11:48:37.621Z,9.40
2018-06-04T11:50:42.685Z,10.23
2018-06-04T11:52:47.678Z,9.50
2018-06-04T11:54:56.091Z,10.30
2018-06-04T11:57:00.879Z,14.63
2018-06-04T11:59:06.294Z,14.40
2018-06-04T12:01:11.580Z,9.07
2018-06-04T12:03:16.493Z,11.13
2018-06-04T12:05:21.316Z,11.90
2018-06-04T12:07:26.041Z,10.50
2018-06-04T12:09:30.852Z,9.83
2018-06-04T12:11:35.932Z,11.73
2018-06-04T12:13:40.741Z,12.33
2018-06-04T12:15:45.614Z,10.33
2018-06-04T12:17:57.945Z,9.40
2018-06-04T12:20:02.619Z,7.73
2018-06-04T12:22:07.443Z,9.07
2018-06-04T12:24:12.161Z,8.63
2018-06-04T12:26:16.971Z,7.77
2018-06-04T12:28:21.812Z,7.97
2018-06-04T12:30:26.471Z,8.33
2018-06-04T12:32:31.211Z,10.03
2018-06-04T12:34:35.950Z,9.57
2018-06-04T12:36:41.179Z,7.83
2018-06-04T12:38:46.078Z,7.27
2018-06-04T12:40:50.920Z,6.13
2018-06-04T12:42:55.797Z,6.63
2018-06-04T12:45:00.522Z,9.30
2018-06-04T12:47:05.369Z,9.47
2018-06-04T12:49:10.145Z,9.33
2018-06-04T12:51:14.951Z,9.83
2018-06-04T12:53:19.583Z,11.07
2018-06-04T12:55:24.354Z,13.57
2018-06-04T12:59:45.464Z,16.37
2018-06-04T13:01:50.291Z,16.87
2018-06-04T13:03:55.286Z,11.90
2018-06-04T13:05:59.965Z,12.77
2018-06-04T13:08:04.665Z,14.60
2018-06-04T13:10:09.370Z,14.20
2018-06-04T13:12:14.130Z,11.53
2018-06-04T13:14:18.875Z,10.73
2018-06-04T13:16:23.707Z,10.77
2018-06-04T13:18:28.480Z,12.23
2018-06-04T13:20:33.456Z,17.17
2018-06-04T13:22:38.402Z,13.13
2018-06-04T13:24:43.174Z,13.07
2018-06-04T13:26:47.999Z,11.90
2018-06-04T13:28:52.869Z,12.80
2018-06-04T13:30:57.739Z,14.47
2018-06-04T13:33:02.635Z,12.13
2018-06-04T13:35:09.301Z,11.70
2018-06-04T13:37:14.265Z,15.80
2018-06-04T13:39:19.238Z,11.73
2018-06-04T13:41:24.190Z,15.23
2018-06-04T13:43:29.112Z,13.90
2018-06-04T13:45:34.019Z,11.63
2018-06-04T13:47:38.844Z,21.50
2018-06-04T13:49:43.666Z,20.70
2018-06-04T13:51:48.653Z,18.87
2018-06-04T13:53:53.497Z,21.60
2018-06-04T13:55:57.920Z,16.17
2018-06-04T13:58:02.886Z,15.60
2018-06-04T14:00:07.932Z,18.70
2018-06-04T14:02:12.723Z,18.37
2018-06-04T14:04:17.768Z,19.07
2018-06-04T14:06:22.521Z,19.03
2018-06-04T14:08:27.513Z,23.07
2018-06-04T14:10:32.299Z,24.33
2018-06-04T14:12:37.239Z,23.60
2018-06-04T14:14:42.135Z,23.37
2018-06-04T14:16:46.953Z,20.80
2018-06-04T14:18:51.808Z,22.97
2018-06-04T14:20:56.679Z,18.37
2018-06-04T14:23:01.554Z,19.17
2018-06-04T14:25:06.470Z,15.60
2018-06-04T14:27:11.405Z,21.67
2018-06-04T14:29:17.893Z,15.90
2018-06-04T14:31:22.870Z,16.70
2018-06-04T14:33:27.658Z,20.80
2018-06-04T14:35:33.256Z,19.43
2018-06-04T14:37:38.205Z,14.97
2018-06-04T14:39:44.876Z,17.20
2018-06-04T14:41:49.941Z,15.13
2018-06-04T14:43:54.893Z,12.43
2018-06-04T14:45:59.787Z,15.40
2018-06-04T14:48:04.780Z,19.70
2018-06-04T14:50:09.657Z,21.93
2018-06-04T14:52:14.575Z,17.43
2018-06-04T14:54:19.611Z,17.17
2018-06-04T14:56:24.520Z,20.83
2018-06-04T14:58:30.204Z,19.03
2018-06-04T15:00:35.230Z,24.00
2018-06-04T15:02:40.204Z,22.53
2018-06-04T15:04:45.177Z,26.07
2018-06-04T15:06:50.059Z,18.73
2018-06-04T15:08:54.946Z,15.50
2018-06-04T15:10:59.723Z,19.80
2018-06-04T15:13:04.771Z,21.07
2018-06-04T15:15:09.585Z,17.93
2018-06-04T15:17:14.443Z,23.83
2018-06-04T15:19:19.263Z,16.70
2018-06-04T15:21:24.046Z,21.97
2018-06-04T15:23:28.927Z,21.67
2018-06-04T15:25:33.895Z,20.07
2018-06-04T15:27:38.672Z,22.50
2018-06-04T15:29:43.536Z,24.87
2018-06-04T15:31:48.385Z,25.93
2018-06-04T15:33:53.277Z,31.80
2018-06-04T15:35:58.148Z,31.97
2018-06-04T15:38:03.070Z,25.90
2018-06-04T15:40:07.879Z,24.90
2018-06-04T15:42:12.831Z,21.40
2018-06-04T15:44:17.738Z,31.60
2018-06-04T15:46:22.652Z,26.37
2018-06-04T15:48:27.583Z,31.13
2018-06-04T15:50:32.395Z,25.80
2018-06-04T15:54:38.579Z,28.77
2018-06-04T15:56:44.870Z,31.10
2018-06-04T15:58:50.172Z,29.17
2018-06-04T16:00:56.239Z,25.73
2018-06-04T16:03:01.287Z,27.40
2018-06-04T16:05:06.756Z,25.90
2018-06-04T16:07:11.603Z,20.50
2018-06-04T16:09:16.535Z,24.33
2018-06-04T16:11:21.253Z,22.30
2018-06-04T16:13:26.184Z,28.27
2018-06-04T16:15:31.143Z,23.10
2018-06-04T16:17:35.972Z,23.60
2018-06-04T16:19:40.849Z,28.93
2018-06-04T16:21:45.838Z,23.30
2018-06-04T16:23:50.874Z,28.27
2018-06-04T16:25:55.908Z,26.37
2018-06-04T16:28:00.800Z,26.67
2018-06-04T16:30:07.559Z,29.53
2018-06-04T16:32:12.316Z,22.17
2018-06-04T16:34:17.030Z,21.97
2018-06-04T16:36:21.694Z,23.60
2018-06-04T16:38:26.404Z,17.80
2018-06-04T16:40:31.094Z,29.13
2018-06-04T16:42:35.841Z,32.00
2018-06-04T16:44:40.619Z,29.07
2018-06-04T16:46:45.378Z,22.07
2018-06-04T16:48:50.077Z,21.53
2018-06-04T16:50:54.769Z,18.70
2018-06-04T16:52:59.662Z,25.47
2018-06-04T16:55:04.563Z,24.73
2018-06-04T16:57:09.247Z,24.83
2018-06-04T16:59:14.448Z,20.20
2018-06-04T17:01:19.238Z,21.87
2018-06-04T17:03:24.135Z,29.73
2018-06-04T17:05:29.050Z,22.90
2018-06-04T17:07:33.869Z,21.57
2018-06-04T17:09:38.764Z,21.40
2018-06-04T17:11:43.618Z,21.20
2018-06-04T17:13:48.352Z,15.17
2018-06-04T17:15:53.467Z,19.37
2018-06-04T17:17:59.218Z,25.40
2018-06-04T17:20:04.116Z,21.50
2018-06-04T17:22:09.160Z,23.30
2018-06-04T17:24:14.054Z,27.03
2018-06-04T17:26:18.833Z,21.30
2018-06-04T17:28:23.508Z,31.10
2018-06-04T17:30:28.373Z,19.10
2018-06-04T17:32:33.154Z,17.60
2018-06-04T17:34:37.849Z,23.13
2018-06-04T17:36:42.677Z,20.83
2018-06-04T17:38:47.562Z,22.53
2018-06-04T17:40:52.372Z,27.40
2018-06-04T17:42:57.142Z,19.33
2018-06-04T17:45:02.267Z,17.80
2018-06-04T17:47:06.995Z,20.27
2018-06-04T17:49:11.797Z,24.50
2018-06-04T17:51:17.097Z,21.13
2018-06-04T17:53:22.036Z,26.40
2018-06-04T17:55:27.712Z,23.93
2018-06-04T17:57:32.685Z,18.77
2018-06-04T17:59:37.498Z,21.23
2018-06-04T18:01:43.140Z,27.40
2018-06-04T18:03:48.716Z,31.40
2018-06-04T18:05:54.805Z,22.60
2018-06-04T18:07:59.745Z,22.47
2018-06-04T18:10:04.891Z,27.50
2018-06-04T18:12:09.891Z,21.53
2018-06-04T18:14:15.144Z,17.40
2018-06-04T18:16:19.925Z,24.80
2018-06-04T18:18:24.840Z,18.03
2018-06-04T18:20:29.681Z,19.57
2018-06-04T18:22:34.352Z,18.30
2018-06-04T18:24:39.413Z,22.43
2018-06-04T18:26:44.187Z,14.33
2018-06-04T18:28:50.326Z,19.20
2018-06-04T18:30:56.415Z,19.43
2018-06-04T18:33:01.933Z,20.57
2018-06-04T18:35:06.401Z,15.50
2018-06-04T18:37:11.628Z,17.77
2018-06-04T18:39:17.154Z,15.90
2018-06-04T18:41:22.638Z,18.23
2018-06-04T18:43:51.990Z,13.53
2018-06-04T18:46:06.682Z,14.67
2018-06-04T18:48:36.114Z,17.40
2018-06-04T18:51:09.628Z,17.80
2018-06-04T18:53:45.788Z,20.87
2018-06-04T18:56:09.861Z,20.30
2018-06-04T18:58:22.115Z,13.70
2018-06-04T19:00:27.172Z,12.80
2018-06-04T19:02:41.140Z,12.10
2018-06-04T19:05:16.575Z,18.87
2018-06-04T19:07:49.621Z,14.33
2018-06-04T19:10:11.475Z,21.93
2018-06-04T19:12:48.910Z,18.97
2018-06-04T19:15:00.479Z,19.10
2018-06-04T19:17:30.596Z,23.73
2018-06-04T19:20:10.960Z,16.37
2018-06-04T19:22:51.067Z,13.27
2018-06-04T19:24:57.108Z,18.43
2018-06-04T19:27:32.912Z,19.57
2018-06-04T19:30:14.414Z,15.27
2018-06-04T19:32:42.254Z,15.70
2018-06-04T19:34:51.165Z,14.57
2018-06-04T19:37:19.002Z,21.90
2018-06-04T19:39:53.418Z,14.03
2018-06-04T19:42:13.184Z,15.50
2018-06-04T19:44:23.620Z,13.43
2018-06-04T19:49:13.219Z,19.03
2018-06-04T19:51:29.029Z,17.13
2018-06-04T19:54:01.375Z,17.40
2018-06-04T19:56:23.994Z,18.43
2018-06-04T19:58:32.185Z,16.13
2018-06-04T20:00:44.349Z,14.70
2018-06-04T20:02:54.171Z,16.07
2018-06-04T20:07:05.510Z,12.70
2018-06-04T20:09:17.989Z,19.40
2018-06-04T20:11:29.680Z,17.87
2018-06-04T20:14:18.708Z,18.13
2018-06-04T20:16:30.478Z,13.53
2018-06-04T20:18:42.068Z,16.17
2018-06-04T20:20:47.102Z,27.23
2018-06-04T20:23:05.001Z,15.30
2018-06-04T20:25:15.545Z,16.20
2018-06-04T20:27:21.116Z,15.20
2018-06-04T20:29:26.203Z,14.50
2018-06-04T20:31:31.079Z,19.67
2018-06-04T20:33:36.099Z,16.57
2018-06-04T20:35:42.111Z,13.43
2018-06-04T20:37:47.191Z,14.83
2018-06-04T20:39:52.273Z,17.67
2018-06-04T20:41:57.120Z,14.93
2018-06-04T20:44:01.925Z,16.63
2018-06-04T20:46:07.084Z,12.37
2018-06-04T20:48:12.230Z,23.43
2018-06-04T20:50:17.032Z,18.73
2018-06-04T20:52:22.041Z,14.73
2018-06-04T20:54:27.042Z,13.67
2018-06-04T20:56:32.120Z,18.17
2018-06-04T20:58:37.808Z,17.37
2018-06-04T21:00:44.687Z,19.33
2018-06-04T21:02:50.301Z,14.13
2018-06-04T21:04:55.400Z,15.63
2018-06-04T21:07:00.230Z,16.23
2018-06-04T21:09:07.812Z,26.17
2018-06-04T21:11:12.714Z,18.50
2018-06-04T21:13:18.133Z,16.80
2018-06-04T21:15:22.946Z,19.90
2018-06-04T21:17:27.853Z,21.13
2018-06-04T21:19:32.875Z,19.27
2018-06-04T21:21:40.134Z,23.57
2018-06-04T21:23:44.888Z,21.27
2018-06-04T21:25:49.684Z,23.87
2018-06-04T21:27:54.523Z,23.07
2018-06-04T21:29:59.342Z,19.57
2018-06-04T21:32:04.206Z,18.67
2018-06-04T21:34:08.996Z,18.53
2018-06-04T21:36:13.825Z,23.47
2018-06-04T21:38:18.628Z,20.03
2018-06-04T21:40:23.376Z,21.37
2018-06-04T21:42:28.192Z,18.37
2018-06-04T21:44:33.047Z,19.03
2018-06-04T21:46:37.820Z,21.03
2018-06-04T21:48:47.955Z,21.03
2018-06-04T21:50:56.455Z,20.53
2018-06-04T21:53:01.237Z,27.67
2018-06-04T21:55:06.149Z,21.93
2018-06-04T21:57:11.250Z,18.47
2018-06-04T21:59:15.996Z,19.10
2018-06-04T22:01:20.762Z,22.33
2018-06-04T22:03:25.821Z,19.97
2018-06-04T22:05:30.868Z,23.70
2018-06-04T22:07:35.912Z,22.97
2018-06-04T22:09:40.758Z,17.97
2018-06-04T22:11:45.746Z,19.43
2018-06-04T22:13:50.846Z,22.13
2018-06-04T22:15:55.633Z,22.97
2018-06-04T22:18:00.401Z,27.57
2018-06-04T22:20:05.278Z,22.30
2018-06-04T22:22:10.013Z,24.77
2018-06-04T22:24:14.742Z,19.37
2018-06-04T22:26:19.568Z,21.53
2018-06-04T22:28:24.348Z,25.03
2018-06-04T22:30:29.425Z,21.20
2018-06-04T22:32:34.365Z,20.70
2018-06-04T22:34:39.202Z,23.10
2018-06-04T22:36:43.915Z,23.07
2018-06-04T22:38:48.721Z,28.67
2018-06-04T22:40:53.440Z,21.47
2018-06-04T22:42:58.191Z,22.57
2018-06-04T22:45:02.997Z,16.17
2018-06-04T22:47:07.787Z,20.47
2018-06-04T22:49:12.467Z,19.30
2018-06-04T22:51:17.166Z,22.37
2018-06-04T22:53:21.858Z,23.57
2018-06-04T22:55:26.613Z,21.53
2018-06-04T22:57:31.483Z,30.53
2018-06-04T22:59:36.123Z,19.47
2018-06-04T23:01:40.947Z,21.57
2018-06-04T23:03:45.746Z,20.73
2018-06-04T23:05:50.519Z,22.67
2018-06-04T23:07:55.262Z,19.90
2018-06-04T23:10:00.030Z,22.70
2018-06-04T23:12:04.794Z,24.50
2018-06-04T23:14:09.507Z,21.83
2018-06-04T23:16:14.369Z,24.97
2018-06-04T23:18:19.117Z,24.40
2018-06-04T23:20:23.932Z,24.03
2018-06-04T23:22:28.739Z,22.53
2018-06-04T23:24:33.517Z,26.00
2018-06-04T23:26:38.193Z,23.27
2018-06-04T23:28:42.869Z,23.50
2018-06-04T23:30:47.569Z,26.80
2018-06-04T23:32:52.210Z,24.70
2018-06-04T23:34:56.922Z,27.50
2018-06-04T23:37:01.684Z,25.50
2018-06-04T23:39:09.322Z,33.80
2018-06-04T23:41:14.039Z,31.30
2018-06-04T23:43:18.791Z,24.83
2018-06-04T23:45:23.428Z,22.50
2018-06-04T23:47:28.266Z,27.03
2018-06-04T23:49:33.030Z,24.47
2018-06-04T23:51:37.746Z,26.73
2018-06-04T23:53:42.486Z,28.40
2018-06-04T23:55:47.171Z,28.57
2018-06-04T23:57:51.896Z,27.80
2018-06-04T23:59:56.681Z,25.20
